createdAt,value
2019-01-21T00:00:46.327Z,24.07
2019-01-21T00:03:14.656Z,26.60
2019-01-21T00:05:42.057Z,24.50
2019-01-21T00:08:09.157Z,23.50
2019-01-21T00:10:36.198Z,23.33
2019-01-21T00:13:03.696Z,22.50
2019-01-21T00:15:30.967Z,21.27
2019-01-21T00:17:57.991Z,22.03
2019-01-21T00:20:25.049Z,22.27
2019-01-21T00:22:52.123Z,22.53
2019-01-21T00:25:19.168Z,22.80
2019-01-21T00:27:46.215Z,22.20
2019-01-21T00:30:13.339Z,22.47
2019-01-21T00:32:40.416Z,20.77
2019-01-21T00:35:08.378Z,22.03
2019-01-21T00:37:35.568Z,21.60
2019-01-21T00:40:03.506Z,21.17
2019-01-21T00:42:30.537Z,21.97
2019-01-21T00:44:57.938Z,21.73
2019-01-21T00:47:29.840Z,23.63
2019-01-21T00:49:53.913Z,23.60
2019-01-21T00:52:21.001Z,23.47
2019-01-21T00:54:48.031Z,22.63
2019-01-21T00:57:15.410Z,19.87
2019-01-21T00:59:42.504Z,20.80
2019-01-21T01:02:09.635Z,21.10
2019-01-21T01:04:36.677Z,23.30
2019-01-21T01:07:03.788Z,24.13
2019-01-21T01:09:30.863Z,21.40
2019-01-21T01:11:58.072Z,21.30
2019-01-21T01:14:25.111Z,21.00
2019-01-21T01:16:52.214Z,22.60
2019-01-21T01:19:19.275Z,21.80
2019-01-21T01:21:46.309Z,21.67
2019-01-21T01:24:14.576Z,21.63
2019-01-21T01:26:41.613Z,21.30
2019-01-21T01:29:08.645Z,21.93
2019-01-21T01:31:35.716Z,22.67
2019-01-21T01:34:02.750Z,24.10
2019-01-21T01:36:29.793Z,22.80
2019-01-21T01:41:37.348Z,21.20
2019-01-21T01:44:04.403Z,20.90
2019-01-21T01:46:31.507Z,21.77
2019-01-21T01:48:58.989Z,22.87
2019-01-21T01:51:26.150Z,22.07
2019-01-21T01:53:53.314Z,18.83
2019-01-21T01:56:40.668Z,22.27
2019-01-21T01:59:08.198Z,22.03
2019-01-21T02:01:35.244Z,21.80
2019-01-21T02:04:02.318Z,23.83
2019-01-21T02:06:29.945Z,23.60
2019-01-21T02:08:57.040Z,23.20
2019-01-21T02:11:24.128Z,23.27
2019-01-21T02:13:51.484Z,21.33
2019-01-21T02:16:18.532Z,22.53
2019-01-21T02:18:45.635Z,21.70
2019-01-21T02:21:12.700Z,20.53
2019-01-21T02:23:43.916Z,21.70
2019-01-21T02:26:21.588Z,20.17
2019-01-21T02:29:16.996Z,20.23
2019-01-21T02:32:29.015Z,21.23
2019-01-21T02:35:36.239Z,20.13
2019-01-21T02:38:41.473Z,20.07
2019-01-21T02:42:01.567Z,19.73
2019-01-21T02:44:58.382Z,20.23
2019-01-21T02:47:37.274Z,18.73
2019-01-21T02:50:26.779Z,18.07
2019-01-21T02:53:33.026Z,20.27
2019-01-21T02:56:30.668Z,19.20
2019-01-21T02:59:34.542Z,18.93
2019-01-21T03:02:45.286Z,19.07
2019-01-21T03:06:11.627Z,18.00
2019-01-21T03:09:31.378Z,19.77
2019-01-21T03:12:36.029Z,20.50
2019-01-21T03:16:09.685Z,20.27
2019-01-21T03:19:16.794Z,21.80
2019-01-21T03:22:06.989Z,21.87
2019-01-21T03:25:14.553Z,20.47
2019-01-21T03:28:19.440Z,20.53
2019-01-21T03:31:44.087Z,19.37
2019-01-21T03:34:37.177Z,19.67
2019-01-21T03:38:10.421Z,20.57
2019-01-21T03:41:08.836Z,20.50
2019-01-21T03:44:00.688Z,21.07
2019-01-21T03:47:06.443Z,21.73
2019-01-21T03:49:44.161Z,21.10
2019-01-21T03:52:49.010Z,21.87
2019-01-21T03:55:17.397Z,21.20
2019-01-21T03:58:35.570Z,21.03
2019-01-21T04:01:36.968Z,20.63
2019-01-21T04:04:54.445Z,18.77
2019-01-21T04:08:05.061Z,20.07
2019-01-21T04:11:29.241Z,19.10
2019-01-21T04:14:31.185Z,20.47
2019-01-21T04:17:49.063Z,19.37
2019-01-21T04:20:49.139Z,18.53
2019-01-21T04:23:58.086Z,20.60
2019-01-21T04:27:03.908Z,19.43
2019-01-21T04:30:03.835Z,18.57
2019-01-21T04:33:24.800Z,18.20
2019-01-21T04:36:10.429Z,19.43
2019-01-21T04:39:07.164Z,18.53
2019-01-21T04:42:24.683Z,19.60
2019-01-21T04:45:33.102Z,20.00
2019-01-21T04:48:15.454Z,20.97
2019-01-21T04:51:17.525Z,20.97
2019-01-21T04:54:23.195Z,20.93
2019-01-21T04:57:19.322Z,18.53
2019-01-21T05:00:13.115Z,21.60
2019-01-21T05:03:09.479Z,19.63
2019-01-21T05:05:48.837Z,18.40
2019-01-21T05:08:56.822Z,19.93
2019-01-21T05:12:01.407Z,20.53
2019-01-21T05:15:05.800Z,18.00
2019-01-21T05:18:13.901Z,19.03
2019-01-21T05:21:30.059Z,19.13
2019-01-21T05:24:11.366Z,18.73
2019-01-21T05:27:14.957Z,20.30
2019-01-21T05:29:58.593Z,19.37
2019-01-21T05:33:26.018Z,18.80
2019-01-21T05:36:47.057Z,20.10
2019-01-21T05:39:58.818Z,20.10
2019-01-21T05:43:35.389Z,20.17
2019-01-21T05:46:53.295Z,18.90
2019-01-21T05:49:44.795Z,19.17
2019-01-21T05:53:00.056Z,21.03
2019-01-21T05:55:55.675Z,19.90
2019-01-21T05:59:03.424Z,18.90
2019-01-21T06:02:21.601Z,20.23
2019-01-21T06:05:39.362Z,19.60
2019-01-21T06:08:53.942Z,19.43
2019-01-21T06:11:40.347Z,19.60
2019-01-21T06:14:36.143Z,20.07
2019-01-21T06:17:44.050Z,20.23
2019-01-21T06:21:02.238Z,20.13
2019-01-21T06:23:56.616Z,18.73
2019-01-21T06:27:06.104Z,21.17
2019-01-21T06:29:49.863Z,19.87
2019-01-21T06:33:16.806Z,20.73
2019-01-21T06:36:20.066Z,19.53
2019-01-21T06:39:53.491Z,18.10
2019-01-21T06:43:03.691Z,19.43
2019-01-21T06:46:16.446Z,20.10
2019-01-21T06:49:10.222Z,18.87
2019-01-21T06:52:24.269Z,20.63
2019-01-21T06:55:11.282Z,20.20
2019-01-21T06:58:15.953Z,16.87
2019-01-21T07:01:23.806Z,19.13
2019-01-21T07:04:35.696Z,20.77
2019-01-21T07:07:41.730Z,20.37
2019-01-21T07:10:52.667Z,21.80
2019-01-21T07:14:12.881Z,20.70
2019-01-21T07:17:27.823Z,19.17
2019-01-21T07:20:42.360Z,22.03
2019-01-21T07:24:05.941Z,20.53
2019-01-21T07:27:09.690Z,19.57
2019-01-21T07:30:04.386Z,20.23
2019-01-21T07:32:45.634Z,19.60
2019-01-21T07:35:49.793Z,20.47
2019-01-21T07:38:41.019Z,20.33
2019-01-21T07:41:34.148Z,21.50
2019-01-21T07:44:15.206Z,19.73
2019-01-21T07:47:30.079Z,20.80
2019-01-21T07:50:50.376Z,20.27
2019-01-21T07:53:49.111Z,19.13
2019-01-21T07:57:00.275Z,22.73
2019-01-21T08:00:22.161Z,19.77
2019-01-21T08:03:18.754Z,21.90
2019-01-21T08:06:27.275Z,21.33
2019-01-21T08:09:36.095Z,20.93
2019-01-21T08:12:25.916Z,19.97
2019-01-21T08:15:28.619Z,18.93
2019-01-21T08:18:33.384Z,21.13
2019-01-21T08:21:08.308Z,22.20
2019-01-21T08:23:51.600Z,23.20
2019-01-21T08:27:02.567Z,20.03
2019-01-21T08:30:05.537Z,21.83
2019-01-21T08:32:58.731Z,22.27
2019-01-21T08:36:04.142Z,22.33
2019-01-21T08:39:11.425Z,23.03
2019-01-21T08:42:00.990Z,23.50
2019-01-21T08:45:02.000Z,23.30
2019-01-21T08:48:01.419Z,23.87
2019-01-21T08:51:06.462Z,23.63
2019-01-21T08:54:09.025Z,25.77
2019-01-21T08:57:36.135Z,28.83
2019-01-21T09:01:00.247Z,29.60
2019-01-21T09:03:42.221Z,30.43
2019-01-21T09:06:37.257Z,31.77
2019-01-21T09:09:28.814Z,33.50
2019-01-21T09:12:32.837Z,34.10
2019-01-21T09:15:25.361Z,35.07
2019-01-21T09:18:33.054Z,37.47
2019-01-21T09:21:54.242Z,40.53
2019-01-21T09:24:47.290Z,39.07
2019-01-21T09:27:52.733Z,39.60
2019-01-21T09:30:54.096Z,42.23
2019-01-21T09:33:48.808Z,42.03
2019-01-21T09:37:02.821Z,42.37
2019-01-21T09:39:59.595Z,39.27
2019-01-21T09:43:08.661Z,43.40
2019-01-21T09:46:12.681Z,46.07
2019-01-21T09:48:38.699Z,47.43
2019-01-21T09:51:05.738Z,49.60
2019-01-21T09:53:34.447Z,49.40
2019-01-21T09:56:02.022Z,44.90
2019-01-21T09:58:31.944Z,48.37
2019-01-21T10:00:59.229Z,48.70
2019-01-21T10:03:26.981Z,49.57
2019-01-21T10:05:58.612Z,43.37
2019-01-21T10:08:53.072Z,48.13
2019-01-21T10:11:53.388Z,41.97
2019-01-21T10:14:46.153Z,40.43
2019-01-21T10:17:43.944Z,38.80
2019-01-21T10:20:38.114Z,38.43
2019-01-21T10:23:26.522Z,37.83
2019-01-21T10:26:28.541Z,36.60
2019-01-21T10:29:12.666Z,39.33
2019-01-21T10:32:17.647Z,39.67
2019-01-21T10:35:22.393Z,34.90
2019-01-21T10:38:28.413Z,35.57
2019-01-21T10:41:26.149Z,36.00
2019-01-21T10:44:32.197Z,35.77
2019-01-21T10:47:22.471Z,34.87
2019-01-21T10:50:29.986Z,35.67
2019-01-21T10:53:14.635Z,34.40
2019-01-21T10:56:25.489Z,34.73
2019-01-21T10:59:32.560Z,35.03
2019-01-21T11:02:33.437Z,36.77
2019-01-21T11:05:38.796Z,35.27
2019-01-21T11:08:31.536Z,35.80
2019-01-21T11:11:25.183Z,37.17
2019-01-21T11:14:58.543Z,33.97
2019-01-21T11:17:45.105Z,32.83
2019-01-21T11:21:00.891Z,34.03
2019-01-21T11:24:13.558Z,32.60
2019-01-21T11:27:14.871Z,32.87
2019-01-21T11:29:56.315Z,34.30
2019-01-21T11:32:59.324Z,30.60
2019-01-21T11:36:05.253Z,32.13
2019-01-21T11:39:00.602Z,30.37
2019-01-21T11:41:51.642Z,29.07
2019-01-21T11:45:07.486Z,28.50
2019-01-21T11:48:24.668Z,28.00
2019-01-21T11:51:33.562Z,27.97
2019-01-21T11:54:35.448Z,29.07
2019-01-21T11:57:25.377Z,28.20
2019-01-21T12:00:09.902Z,29.50
2019-01-21T12:03:03.696Z,28.37
2019-01-21T12:05:42.260Z,26.30
2019-01-21T12:08:53.152Z,27.63
2019-01-21T12:11:46.186Z,24.03
2019-01-21T12:15:09.765Z,26.30
2019-01-21T12:18:09.350Z,24.43
2019-01-21T12:21:23.329Z,24.23
2019-01-21T12:24:18.804Z,21.07
2019-01-21T12:27:19.996Z,23.83
2019-01-21T12:30:13.784Z,21.73
2019-01-21T12:33:18.414Z,19.27
2019-01-21T12:35:58.437Z,21.00
2019-01-21T12:39:05.935Z,21.23
2019-01-21T12:42:23.748Z,22.37
2019-01-21T12:45:43.882Z,22.57
2019-01-21T12:48:58.881Z,23.90
2019-01-21T12:52:13.417Z,20.73
2019-01-21T12:55:18.478Z,22.70
2019-01-21T13:02:09.295Z,23.40
2019-01-21T13:04:59.413Z,21.63
2019-01-21T13:07:46.636Z,23.77
2019-01-21T13:10:37.356Z,22.70
2019-01-21T13:14:01.752Z,24.03
2019-01-21T13:16:51.219Z,21.13
2019-01-21T13:19:33.399Z,22.70
2019-01-21T13:22:51.315Z,23.50
2019-01-21T13:25:51.136Z,22.80
2019-01-21T13:28:52.650Z,22.20
2019-01-21T13:31:57.091Z,22.10
2019-01-21T13:35:01.328Z,21.43
2019-01-21T13:38:16.197Z,21.67
2019-01-21T13:41:23.941Z,22.03
2019-01-21T13:44:22.823Z,20.10
2019-01-21T13:47:42.692Z,18.87
2019-01-21T13:50:37.175Z,19.60
2019-01-21T13:53:48.752Z,17.37
2019-01-21T13:56:39.752Z,17.60
2019-01-21T13:59:40.491Z,16.90
2019-01-21T14:02:26.264Z,16.93
2019-01-21T14:05:35.749Z,19.83
2019-01-21T14:08:24.270Z,18.70
2019-01-21T14:11:08.241Z,18.73
2019-01-21T14:14:20.232Z,17.10
2019-01-21T14:18:08.827Z,17.07
2019-01-21T14:20:46.675Z,18.90
2019-01-21T14:23:30.228Z,20.20
2019-01-21T14:26:32.767Z,23.27
2019-01-21T14:29:12.815Z,20.93
2019-01-21T14:32:16.085Z,21.67
2019-01-21T14:35:23.804Z,22.17
2019-01-21T14:38:40.556Z,20.87
2019-01-21T14:41:30.683Z,21.23
2019-01-21T14:48:06.215Z,18.87
2019-01-21T14:51:17.097Z,20.47
2019-01-21T14:54:07.290Z,19.47
2019-01-21T14:57:23.978Z,18.93
2019-01-21T15:00:39.296Z,19.60
2019-01-21T15:03:35.111Z,18.93
2019-01-21T15:06:43.340Z,18.40
2019-01-21T15:09:55.213Z,18.83
2019-01-21T15:12:53.071Z,17.67
2019-01-21T15:16:03.539Z,18.93
2019-01-21T15:19:01.390Z,19.37
2019-01-21T15:22:01.169Z,18.47
2019-01-21T15:25:22.449Z,19.97
2019-01-21T15:28:52.481Z,19.73
2019-01-21T15:31:56.169Z,19.33
2019-01-21T15:35:20.754Z,20.23
2019-01-21T15:38:09.174Z,20.43
2019-01-21T15:40:54.962Z,21.47
2019-01-21T15:43:45.262Z,21.50
2019-01-21T15:46:50.172Z,21.67
2019-01-21T15:49:35.550Z,21.70
2019-01-21T15:52:34.038Z,19.53
2019-01-21T15:55:17.050Z,20.73
2019-01-21T15:58:40.707Z,21.43
2019-01-21T16:01:33.983Z,20.70
2019-01-21T16:04:09.661Z,21.17
2019-01-21T16:07:02.824Z,22.87
2019-01-21T16:10:05.841Z,22.17
2019-01-21T16:13:08.142Z,22.80
2019-01-21T16:16:11.339Z,23.63
2019-01-21T16:18:52.434Z,22.80
2019-01-21T16:22:12.516Z,22.53
2019-01-21T16:25:06.352Z,25.40
2019-01-21T16:28:14.408Z,24.97
2019-01-21T16:31:03.501Z,25.97
2019-01-21T16:33:58.522Z,25.47
2019-01-21T16:37:01.332Z,25.80
2019-01-21T16:40:21.767Z,26.50
2019-01-21T16:42:48.954Z,27.33
2019-01-21T16:45:16.006Z,26.23
2019-01-21T16:47:43.118Z,27.33
2019-01-21T16:50:10.170Z,26.20
2019-01-21T16:52:37.331Z,27.47
2019-01-21T16:55:04.713Z,26.43
2019-01-21T16:57:31.774Z,27.40
2019-01-21T16:59:58.857Z,26.70
2019-01-21T17:02:26.029Z,26.80
2019-01-21T17:04:53.168Z,27.93
2019-01-21T17:07:20.215Z,28.43
2019-01-21T17:09:47.322Z,27.90
2019-01-21T17:12:14.363Z,28.10
2019-01-21T17:14:41.457Z,29.83
2019-01-21T17:17:08.568Z,30.03
2019-01-21T17:19:35.637Z,30.80
2019-01-21T17:22:21.281Z,27.93
2019-01-21T17:24:49.362Z,28.20
2019-01-21T17:27:16.407Z,29.90
2019-01-21T17:29:43.493Z,31.83
2019-01-21T17:32:10.524Z,32.20
2019-01-21T17:34:37.604Z,29.90
2019-01-21T17:37:04.729Z,31.10
2019-01-21T17:39:31.797Z,30.90
2019-01-21T17:41:58.869Z,28.70
2019-01-21T17:44:25.962Z,27.50
2019-01-21T17:46:53.023Z,31.83
2019-01-21T17:49:20.312Z,34.27
2019-01-21T17:51:47.498Z,32.30
2019-01-21T17:54:14.642Z,32.87
2019-01-21T17:56:41.740Z,32.60
2019-01-21T17:59:08.822Z,31.87
2019-01-21T18:01:39.324Z,34.67
2019-01-21T18:04:04.947Z,32.30
2019-01-21T18:06:34.779Z,30.70
2019-01-21T18:09:02.203Z,30.73
2019-01-21T18:11:29.430Z,32.83
2019-01-21T18:13:56.519Z,32.73
2019-01-21T18:16:23.741Z,33.17
2019-01-21T18:18:50.990Z,34.70
2019-01-21T18:21:18.078Z,34.47
2019-01-21T18:27:25.329Z,34.23
2019-01-21T18:29:52.537Z,37.23
2019-01-21T18:32:19.592Z,33.33
2019-01-21T18:34:46.782Z,37.77
2019-01-21T18:37:13.918Z,36.27
2019-01-21T18:39:40.956Z,36.67
2019-01-21T18:42:08.463Z,36.53
2019-01-21T18:44:35.762Z,36.73
2019-01-21T18:47:03.022Z,37.20
2019-01-21T18:49:30.166Z,36.93
2019-01-21T18:51:57.413Z,36.17
2019-01-21T18:54:24.481Z,38.40
2019-01-21T18:56:51.745Z,37.43
2019-01-21T19:03:01.309Z,37.40
2019-01-21T19:05:28.379Z,38.60
2019-01-21T19:07:55.451Z,39.07
2019-01-21T19:10:22.570Z,38.13
2019-01-21T19:13:08.262Z,38.97
2019-01-21T19:15:36.681Z,37.17
2019-01-21T19:18:04.023Z,35.23
2019-01-21T19:20:31.145Z,43.27
2019-01-21T19:22:59.980Z,37.10
2019-01-21T19:25:27.091Z,38.33
2019-01-21T19:27:54.191Z,43.23
2019-01-21T19:30:23.475Z,40.57
2019-01-21T19:32:50.569Z,40.93
2019-01-21T19:35:20.806Z,38.87
2019-01-21T19:37:49.312Z,40.03
2019-01-21T19:40:18.552Z,36.90
2019-01-21T19:42:45.642Z,40.27
2019-01-21T19:45:13.096Z,40.63
2019-01-21T19:47:40.255Z,41.63
2019-01-21T19:50:08.203Z,39.50
2019-01-21T19:52:35.294Z,37.77
2019-01-21T19:55:02.998Z,41.53
2019-01-21T19:57:30.232Z,39.77
2019-01-21T19:59:57.299Z,39.33
2019-01-21T20:02:24.674Z,40.80
2019-01-21T20:04:51.779Z,40.13
2019-01-21T20:07:18.973Z,41.03
2019-01-21T20:09:46.061Z,40.97
2019-01-21T20:12:14.301Z,37.33
2019-01-21T20:14:41.445Z,39.37
2019-01-21T20:17:08.522Z,41.30
2019-01-21T20:19:35.625Z,42.10
2019-01-21T20:22:07.303Z,41.97
2019-01-21T20:24:32.123Z,41.77
2019-01-21T20:26:59.226Z,43.10
2019-01-21T20:29:26.378Z,43.70
2019-01-21T20:31:53.775Z,44.20
2019-01-21T20:34:20.926Z,44.07
2019-01-21T20:36:48.070Z,43.83
2019-01-21T20:39:15.272Z,40.37
2019-01-21T20:41:42.336Z,42.70
2019-01-21T20:44:09.358Z,43.13
2019-01-21T20:46:36.465Z,41.57
2019-01-21T20:49:03.958Z,42.60
2019-01-21T20:51:31.038Z,41.60
2019-01-21T20:53:58.170Z,44.17
2019-01-21T20:56:25.284Z,40.43
2019-01-21T20:58:52.356Z,41.90
2019-01-21T21:01:19.490Z,39.00
2019-01-21T21:03:46.873Z,43.53
2019-01-21T21:06:13.999Z,37.67
2019-01-21T21:08:41.069Z,41.93
2019-01-21T21:11:08.086Z,43.47
2019-01-21T21:13:35.188Z,41.43
2019-01-21T21:16:02.330Z,42.43
2019-01-21T21:18:29.493Z,37.23
2019-01-21T21:20:56.632Z,43.97
2019-01-21T21:23:23.786Z,46.20
2019-01-21T21:25:50.842Z,44.47
2019-01-21T21:28:18.063Z,43.97
2019-01-21T21:31:22.060Z,42.03
2019-01-21T21:33:49.128Z,44.87
2019-01-21T21:36:16.175Z,41.80
2019-01-21T21:38:43.714Z,43.10
2019-01-21T21:41:10.868Z,45.33
2019-01-21T21:43:38.112Z,44.97
2019-01-21T21:46:05.757Z,45.67
2019-01-21T21:48:32.837Z,47.97
2019-01-21T21:50:59.966Z,47.97
2019-01-21T21:53:27.222Z,46.50
2019-01-21T21:55:54.935Z,45.90
2019-01-21T21:58:22.097Z,45.40
2019-01-21T22:00:49.247Z,44.43
2019-01-21T22:03:17.424Z,47.73
2019-01-21T22:05:44.451Z,42.53
2019-01-21T22:08:11.501Z,45.83
2019-01-21T22:10:38.610Z,45.10
2019-01-21T22:13:05.747Z,48.53
2019-01-21T22:15:32.839Z,46.53
2019-01-21T22:17:59.977Z,51.83
2019-01-21T22:20:27.206Z,50.03
2019-01-21T22:22:54.242Z,48.60
2019-01-21T22:25:21.295Z,43.77
2019-01-21T22:27:48.353Z,45.70
2019-01-21T22:30:20.366Z,45.53
2019-01-21T22:32:47.593Z,45.67
2019-01-21T22:35:14.767Z,46.27
2019-01-21T22:37:41.906Z,47.57
2019-01-21T22:40:11.771Z,48.33
2019-01-21T22:42:38.880Z,47.87
2019-01-21T22:45:07.442Z,45.23
2019-01-21T22:47:34.860Z,46.33
2019-01-21T22:50:02.432Z,46.27
2019-01-21T22:52:29.669Z,46.80
2019-01-21T22:54:56.770Z,49.43
2019-01-21T22:57:23.906Z,56.40
2019-01-21T22:59:51.003Z,53.67
2019-01-21T23:02:18.471Z,56.77
2019-01-21T23:04:45.510Z,53.40
2019-01-21T23:07:13.012Z,55.03
2019-01-21T23:09:41.250Z,54.33
2019-01-21T23:12:08.294Z,59.23
2019-01-21T23:14:35.395Z,55.77
2019-01-21T23:17:02.783Z,54.70
2019-01-21T23:19:29.846Z,52.37
2019-01-21T23:21:57.202Z,49.10
2019-01-21T23:24:24.305Z,50.80
2019-01-21T23:26:51.354Z,51.90
2019-01-21T23:29:18.484Z,53.13
2019-01-21T23:31:45.673Z,52.77
2019-01-21T23:34:12.707Z,51.17
2019-01-21T23:36:39.750Z,52.87
2019-01-21T23:39:07.594Z,50.87
2019-01-21T23:41:34.740Z,52.17
2019-01-21T23:44:01.835Z,51.53
2019-01-21T23:46:28.888Z,50.77
2019-01-21T23:48:56.077Z,50.67
2019-01-21T23:51:23.344Z,48.83
2019-01-21T23:53:50.428Z,47.27
2019-01-21T23:56:17.520Z,52.63
2019-01-21T23:58:44.698Z,46.60
